sensor_id;sensor_type;location;lat;lon;timestamp;pressure;altitude;pressure_sealevel;temperature;humidity
16821;BME280;8527;49.740;6.604;2023-03-05T00:04:18;100234.81;;;4.70;84.97
16821;BME280;8527;49.740;6.604;2023-03-05T00:09:18;100230.06;;;4.75;85.46
16821;BME280;8527;49.740;6.604;2023-03-05T00:14:17;100229.56;;;4.70;85.48
16821;BME280;8527;49.740;6.604;2023-03-05T00:19:18;100227.78;;;4.59;86.12
16821;BME280;8527;49.740;6.604;2023-03-05T00:24:19;100223.00;;;4.64;85.79
16821;BME280;8527;49.740;6.604;2023-03-05T00:29:18;100226.81;;;4.60;86.02
16821;BME280;8527;49.740;6.604;2023-03-05T00:34:20;100226.19;;;4.45;87.02
16821;BME280;8527;49.740;6.604;2023-03-05T00:39:26;100227.41;;;4.53;86.68
16821;BME280;8527;49.740;6.604;2023-03-05T00:44:24;100215.56;;;4.47;86.59
16821;BME280;8527;49.740;6.604;2023-03-05T00:49:26;100216.88;;;4.41;86.49
16821;BME280;8527;49.740;6.604;2023-03-05T00:54:27;100215.06;;;4.42;87.18
16821;BME280;8527;49.740;6.604;2023-03-05T00:59:25;100209.34;;;4.36;87.59
16821;BME280;8527;49.740;6.604;2023-03-05T01:04:28;100202.19;;;4.39;86.21
16821;BME280;8527;49.740;6.604;2023-03-05T01:09:26;100201.22;;;4.40;86.78
16821;BME280;8527;49.740;6.604;2023-03-05T01:14:24;100193.59;;;4.36;88.39
16821;BME280;8527;49.740;6.604;2023-03-05T01:19:23;100185.81;;;4.35;87.23
16821;BME280;8527;49.740;6.604;2023-03-05T01:24:24;100177.72;;;4.38;87.58
16821;BME280;8527;49.740;6.604;2023-03-05T01:29:22;100183.09;;;4.36;87.54
16821;BME280;8527;49.740;6.604;2023-03-05T01:34:21;100176.59;;;4.29;88.36
16821;BME280;8527;49.740;6.604;2023-03-05T01:39:20;100159.16;;;4.17;89.21
16821;BME280;8527;49.740;6.604;2023-03-05T01:44:25;100164.69;;;4.25;89.15
16821;BME280;8527;49.740;6.604;2023-03-05T01:49:24;100156.34;;;4.31;87.74
16821;BME280;8527;49.740;6.604;2023-03-05T01:54:28;100154.78;;;4.29;88.77
16821;BME280;8527;49.740;6.604;2023-03-05T01:59:31;100142.00;;;4.24;87.47
16821;BME280;8527;49.740;6.604;2023-03-05T02:04:36;100134.00;;;4.26;88.33
16821;BME280;8527;49.740;6.604;2023-03-05T02:09:44;100131.03;;;4.19;87.91
16821;BME280;8527;49.740;6.604;2023-03-05T02:14:47;100137.34;;;4.28;86.82
16821;BME280;8527;49.740;6.604;2023-03-05T02:19:54;100135.78;;;4.25;85.35
16821;BME280;8527;49.740;6.604;2023-03-05T02:24:55;100125.28;;;4.25;81.75
16821;BME280;8527;49.740;6.604;2023-03-05T02:30:00;100129.94;;;4.21;84.46
16821;BME280;8527;49.740;6.604;2023-03-05T02:34:59;100131.84;;;4.19;84.86
16821;BME280;8527;49.740;6.604;2023-03-05T02:40:00;100127.09;;;4.25;84.03
16821;BME280;8527;49.740;6.604;2023-03-05T02:44:59;100118.13;;;4.27;85.44
16821;BME280;8527;49.740;6.604;2023-03-05T02:50:00;100112.41;;;4.22;85.15
16821;BME280;8527;49.740;6.604;2023-03-05T02:55:02;100105.59;;;4.19;85.39
16821;BME280;8527;49.740;6.604;2023-03-05T03:00:00;100095.69;;;4.23;85.55
16821;BME280;8527;49.740;6.604;2023-03-05T03:05:05;100092.69;;;4.16;85.76
16821;BME280;8527;49.740;6.604;2023-03-05T03:10:09;100088.06;;;4.20;85.52
16821;BME280;8527;49.740;6.604;2023-03-05T03:15:09;100083.75;;;4.19;83.93
16821;BME280;8527;49.740;6.604;2023-03-05T03:20:13;100077.53;;;4.20;85.26
16821;BME280;8527;49.740;6.604;2023-03-05T03:25:17;100074.66;;;4.12;85.82
16821;BME280;8527;49.740;6.604;2023-03-05T03:30:16;100079.69;;;4.15;85.00
16821;BME280;8527;49.740;6.604;2023-03-05T03:35:17;100073.38;;;4.17;85.42
16821;BME280;8527;49.740;6.604;2023-03-05T03:40:21;100071.44;;;4.08;84.51
16821;BME280;8527;49.740;6.604;2023-03-05T03:45:20;100072.50;;;4.17;84.16
16821;BME280;8527;49.740;6.604;2023-03-05T03:50:18;100062.84;;;4.17;83.36
16821;BME280;8527;49.740;6.604;2023-03-05T03:55:21;100065.59;;;4.16;83.03
16821;BME280;8527;49.740;6.604;2023-03-05T04:00:20;100062.50;;;4.11;84.07
16821;BME280;8527;49.740;6.604;2023-03-05T04:05:19;100060.59;;;4.13;83.60
16821;BME280;8527;49.740;6.604;2023-03-05T04:10:17;100052.00;;;4.11;83.08
16821;BME280;8527;49.740;6.604;2023-03-05T04:15:21;100053.91;;;4.08;83.37
16821;BME280;8527;49.740;6.604;2023-03-05T04:20:20;100058.44;;;4.06;83.11
16821;BME280;8527;49.740;6.604;2023-03-05T04:25:18;100049.47;;;4.09;83.07
16821;BME280;8527;49.740;6.604;2023-03-05T04:30:20;100050.56;;;4.06;83.12
16821;BME280;8527;49.740;6.604;2023-03-05T04:35:24;100050.94;;;4.02;83.41
16821;BME280;8527;49.740;6.604;2023-03-05T04:40:22;100040.44;;;4.02;83.71
16821;BME280;8527;49.740;6.604;2023-03-05T04:45:23;100042.94;;;3.92;84.17
16821;BME280;8527;49.740;6.604;2023-03-05T04:50:22;100030.16;;;3.99;83.90
16821;BME280;8527;49.740;6.604;2023-03-05T04:55:21;100023.34;;;3.96;82.91
16821;BME280;8527;49.740;6.604;2023-03-05T05:00:21;100022.88;;;4.02;82.90
16821;BME280;8527;49.740;6.604;2023-03-05T05:05:29;100014.97;;;3.91;83.36
16821;BME280;8527;49.740;6.604;2023-03-05T05:10:28;100006.03;;;3.93;82.62
16821;BME280;8527;49.740;6.604;2023-03-05T05:15:27;100002.47;;;3.83;83.02
16821;BME280;8527;49.740;6.604;2023-03-05T05:20:29;99995.78;;;3.90;82.29
16821;BME280;8527;49.740;6.604;2023-03-05T05:25:27;99992.94;;;3.93;81.56
16821;BME280;8527;49.740;6.604;2023-03-05T05:30:26;99994.13;;;3.89;81.54
16821;BME280;8527;49.740;6.604;2023-03-05T05:35:24;99989.47;;;3.93;81.59
16821;BME280;8527;49.740;6.604;2023-03-05T05:40:25;99988.88;;;3.89;81.73
16821;BME280;8527;49.740;6.604;2023-03-05T05:45:26;99990.53;;;3.90;81.75
16821;BME280;8527;49.740;6.604;2023-03-05T05:50:25;99987.69;;;3.93;81.55
16821;BME280;8527;49.740;6.604;2023-03-05T05:55:27;99989.34;;;3.94;81.00
16821;BME280;8527;49.740;6.604;2023-03-05T06:00:25;99986.59;;;3.96;81.34
16821;BME280;8527;49.740;6.604;2023-03-05T06:05:24;99986.84;;;3.93;80.75
16821;BME280;8527;49.740;6.604;2023-03-05T06:10:22;99989.47;;;3.93;80.96
16821;BME280;8527;49.740;6.604;2023-03-05T06:15:23;99978.38;;;3.89;81.71
16821;BME280;8527;49.740;6.604;2023-03-05T06:20:21;99977.78;;;3.86;81.48
16821;BME280;8527;49.740;6.604;2023-03-05T06:25:22;99980.03;;;3.90;81.36
16821;BME280;8527;49.740;6.604;2023-03-05T06:30:26;99982.19;;;3.85;81.57
16821;BME280;8527;49.740;6.604;2023-03-05T06:35:36;99978.84;;;3.83;81.74
16821;BME280;8527;49.740;6.604;2023-03-05T06:40:37;99971.09;;;3.82;82.00
16821;BME280;8527;49.740;6.604;2023-03-05T06:45:38;99974.91;;;3.77;82.15
16821;BME280;8527;49.740;6.604;2023-03-05T06:50:37;99970.16;;;3.83;81.83
16821;BME280;8527;49.740;6.604;2023-03-05T06:55:35;99974.31;;;3.85;81.87
16821;BME280;8527;49.740;6.604;2023-03-05T07:00:39;99977.31;;;3.80;81.83
16821;BME280;8527;49.740;6.604;2023-03-05T07:05:38;99970.84;;;3.85;82.04
16821;BME280;8527;49.740;6.604;2023-03-05T07:10:44;99965.50;;;3.86;81.31
16821;BME280;8527;49.740;6.604;2023-03-05T07:15:45;99956.19;;;3.82;82.11
16821;BME280;8527;49.740;6.604;2023-03-05T07:20:43;99958.69;;;3.84;82.05
16821;BME280;8527;49.740;6.604;2023-03-05T07:25:42;99952.25;;;3.88;81.81
16821;BME280;8527;49.740;6.604;2023-03-05T07:30:40;99951.19;;;3.90;81.42
16821;BME280;8527;49.740;6.604;2023-03-05T07:35:41;99949.00;;;3.96;81.63
16821;BME280;8527;49.740;6.604;2023-03-05T07:40:42;99944.00;;;3.92;82.09
16821;BME280;8527;49.740;6.604;2023-03-05T07:45:42;99953.31;;;3.97;82.15
16821;BME280;8527;49.740;6.604;2023-03-05T07:50:43;99949.72;;;4.09;80.78
16821;BME280;8527;49.740;6.604;2023-03-05T07:55:44;99951.28;;;4.12;80.39
16821;BME280;8527;49.740;6.604;2023-03-05T08:00:43;99950.91;;;4.16;80.22
16821;BME280;8527;49.740;6.604;2023-03-05T08:05:44;99952.56;;;4.17;79.87
16821;BME280;8527;49.740;6.604;2023-03-05T08:10:42;99950.19;;;4.26;80.21
16821;BME280;8527;49.740;6.604;2023-03-05T08:15:42;99939.44;;;4.29;79.99
16821;BME280;8527;49.740;6.604;2023-03-05T08:20:43;99942.41;;;4.35;80.15
16821;BME280;8527;49.740;6.604;2023-03-05T08:25:42;99935.31;;;4.36;80.33
16821;BME280;8527;49.740;6.604;2023-03-05T08:30:40;99932.59;;;4.38;80.47
16821;BME280;8527;49.740;6.604;2023-03-05T08:35:38;99929.22;;;4.47;80.74
16821;BME280;8527;49.740;6.604;2023-03-05T08:40:42;99936.13;;;4.59;80.32
16821;BME280;8527;49.740;6.604;2023-03-05T08:45:40;99940.53;;;4.59;80.76
16821;BME280;8527;49.740;6.604;2023-03-05T08:50:39;99934.91;;;4.63;80.57
16821;BME280;8527;49.740;6.604;2023-03-05T08:55:42;99931.53;;;4.73;79.81
16821;BME280;8527;49.740;6.604;2023-03-05T09:00:41;99928.59;;;4.87;79.66
16821;BME280;8527;49.740;6.604;2023-03-05T09:05:39;99920.75;;;4.76;78.10
16821;BME280;8527;49.740;6.604;2023-03-05T09:10:39;99922.41;;;4.98;78.84
16821;BME280;8527;49.740;6.604;2023-03-05T09:15:40;99925.38;;;5.05;78.45
16821;BME280;8527;49.740;6.604;2023-03-05T09:20:41;99916.13;;;5.11;77.64
16821;BME280;8527;49.740;6.604;2023-03-05T09:25:40;99920.34;;;5.23;77.37
16821;BME280;8527;49.740;6.604;2023-03-05T09:30:44;99908.56;;;5.17;76.67
16821;BME280;8527;49.740;6.604;2023-03-05T09:35:42;99904.88;;;5.30;76.23
16821;BME280;8527;49.740;6.604;2023-03-05T09:40:47;99898.22;;;5.26;75.76
16821;BME280;8527;49.740;6.604;2023-03-05T09:46:01;99895.84;;;5.44;75.64
16821;BME280;8527;49.740;6.604;2023-03-05T09:51:12;99888.44;;;5.59;75.05
16821;BME280;8527;49.740;6.604;2023-03-05T09:56:15;99879.41;;;5.61;74.10
16821;BME280;8527;49.740;6.604;2023-03-05T10:01:20;99884.03;;;5.69;73.15
16821;BME280;8527;49.740;6.604;2023-03-05T10:06:22;99879.97;;;5.65;70.67
16821;BME280;8527;49.740;6.604;2023-03-05T10:11:37;99874.06;;;5.73;71.60
16821;BME280;8527;49.740;6.604;2023-03-05T10:16:56;99877.16;;;5.88;70.98
16821;BME280;8527;49.740;6.604;2023-03-05T10:22:11;99873.66;;;5.87;70.21
16821;BME280;8527;49.740;6.604;2023-03-05T10:27:13;99873.66;;;5.77;68.96
16821;BME280;8527;49.740;6.604;2023-03-05T10:32:27;99861.91;;;5.82;69.06
16821;BME280;8527;49.740;6.604;2023-03-05T10:37:53;99863.28;;;5.76;69.66
16821;BME280;8527;49.740;6.604;2023-03-05T10:43:05;99860.09;;;5.82;69.63
16821;BME280;8527;49.740;6.604;2023-03-05T10:48:13;99857.72;;;5.69;68.16
16821;BME280;8527;49.740;6.604;2023-03-05T10:53:18;99854.25;;;5.69;66.36
16821;BME280;8527;49.740;6.604;2023-03-05T10:58:23;99850.94;;;5.86;65.39
16821;BME280;8527;49.740;6.604;2023-03-05T11:03:25;99844.19;;;5.94;64.29
16821;BME280;8527;49.740;6.604;2023-03-05T11:08:31;99845.19;;;6.02;65.04
16821;BME280;8527;49.740;6.604;2023-03-05T11:13:31;99833.41;;;6.07;63.98
16821;BME280;8527;49.740;6.604;2023-03-05T11:18:33;99823.31;;;6.02;63.24
16821;BME280;8527;49.740;6.604;2023-03-05T11:23:32;99832.03;;;6.02;62.10
16821;BME280;8527;49.740;6.604;2023-03-05T11:28:33;99818.13;;;6.00;62.86
16821;BME280;8527;49.740;6.604;2023-03-05T11:33:36;99820.94;;;6.09;62.69
16821;BME280;8527;49.740;6.604;2023-03-05T11:38:44;99817.34;;;6.10;62.83
16821;BME280;8527;49.740;6.604;2023-03-05T11:43:43;99809.09;;;5.93;61.47
16821;BME280;8527;49.740;6.604;2023-03-05T11:48:44;99810.00;;;6.13;61.57
16821;BME280;8527;49.740;6.604;2023-03-05T11:53:44;99799.16;;;6.36;61.63
16821;BME280;8527;49.740;6.604;2023-03-05T11:58:49;99785.97;;;6.56;60.39
16821;BME280;8527;49.740;6.604;2023-03-05T12:03:52;99762.69;;;6.99;60.99
16821;BME280;8527;49.740;6.604;2023-03-05T12:08:54;99753.91;;;7.36;60.52
16821;BME280;8527;49.740;6.604;2023-03-05T12:13:55;99748.13;;;7.23;59.20
16821;BME280;8527;49.740;6.604;2023-03-05T12:19:07;99748.94;;;7.23;58.47
16821;BME280;8527;49.740;6.604;2023-03-05T12:24:35;99734.50;;;7.45;57.30
16821;BME280;8527;49.740;6.604;2023-03-05T12:29:41;99733.41;;;7.66;56.55
16821;BME280;8527;49.740;6.604;2023-03-05T12:34:55;99715.75;;;7.49;55.90
16821;BME280;8527;49.740;6.604;2023-03-05T12:39:57;99703.16;;;7.79;56.27
16821;BME280;8527;49.740;6.604;2023-03-05T12:45:24;99697.81;;;7.52;55.06
16821;BME280;8527;49.740;6.604;2023-03-05T12:50:49;99687.31;;;7.60;55.35
16821;BME280;8527;49.740;6.604;2023-03-05T12:55:55;99683.78;;;7.52;55.26
16821;BME280;8527;49.740;6.604;2023-03-05T13:00:57;99675.50;;;7.46;56.05
16821;BME280;8527;49.740;6.604;2023-03-05T13:05:59;99667.34;;;7.40;56.01
16821;BME280;8527;49.740;6.604;2023-03-05T13:11:01;99668.69;;;7.44;54.91
16821;BME280;8527;49.740;6.604;2023-03-05T13:16:04;99665.81;;;7.37;55.18
16821;BME280;8527;49.740;6.604;2023-03-05T13:21:07;99652.22;;;7.14;54.57
16821;BME280;8527;49.740;6.604;2023-03-05T13:26:14;99646.91;;;7.24;56.27
16821;BME280;8527;49.740;6.604;2023-03-05T13:31:15;99643.38;;;7.05;54.84
16821;BME280;8527;49.740;6.604;2023-03-05T13:36:24;99644.03;;;7.17;55.56
16821;BME280;8527;49.740;6.604;2023-03-05T13:41:24;99627.97;;;7.28;55.18
16821;BME280;8527;49.740;6.604;2023-03-05T13:46:25;99622.63;;;7.38;55.89
16821;BME280;8527;49.740;6.604;2023-03-05T13:56:54;99604.13;;;7.02;55.32
16821;BME280;8527;49.740;6.604;2023-03-05T14:01:54;99600.13;;;6.98;54.76
16821;BME280;8527;49.740;6.604;2023-03-05T14:06:56;99592.91;;;7.00;55.38
16821;BME280;8527;49.740;6.604;2023-03-05T14:12:00;99581.91;;;7.04;55.55
16821;BME280;8527;49.740;6.604;2023-03-05T14:17:21;99584.31;;;7.16;56.23
16821;BME280;8527;49.740;6.604;2023-03-05T14:22:33;99568.63;;;7.14;56.03
16821;BME280;8527;49.740;6.604;2023-03-05T14:27:35;99558.22;;;7.13;56.67
16821;BME280;8527;49.740;6.604;2023-03-05T14:32:35;99557.63;;;7.19;56.17
16821;BME280;8527;49.740;6.604;2023-03-05T14:37:35;99550.94;;;7.25;55.70
16821;BME280;8527;49.740;6.604;2023-03-05T14:42:49;99540.41;;;7.33;56.65
16821;BME280;8527;49.740;6.604;2023-03-05T14:47:49;99530.78;;;7.42;56.57
16821;BME280;8527;49.740;6.604;2023-03-05T14:52:54;99529.38;;;7.11;56.04
16821;BME280;8527;49.740;6.604;2023-03-05T14:57:59;99525.09;;;7.10;56.72
16821;BME280;8527;49.740;6.604;2023-03-05T15:02:58;99503.56;;;7.23;56.10
16821;BME280;8527;49.740;6.604;2023-03-05T15:07:57;99494.00;;;7.22;56.33
16821;BME280;8527;49.740;6.604;2023-03-05T15:13:05;99493.88;;;7.06;56.24
16821;BME280;8527;49.740;6.604;2023-03-05T15:18:03;99484.84;;;6.90;56.94
16821;BME280;8527;49.740;6.604;2023-03-05T15:23:02;99478.06;;;7.06;57.29
16821;BME280;8527;49.740;6.604;2023-03-05T15:28:03;99464.66;;;6.99;57.01
16821;BME280;8527;49.740;6.604;2023-03-05T15:33:04;99458.00;;;6.95;57.11
16821;BME280;8527;49.740;6.604;2023-03-05T15:38:02;99447.84;;;6.82;57.20
16821;BME280;8527;49.740;6.604;2023-03-05T15:43:06;99441.69;;;6.73;57.31
16821;BME280;8527;49.740;6.604;2023-03-05T15:48:08;99437.22;;;6.55;58.34
16821;BME280;8527;49.740;6.604;2023-03-05T15:53:06;99437.47;;;6.62;58.10
16821;BME280;8527;49.740;6.604;2023-03-05T15:58:08;99424.66;;;6.67;58.33
16821;BME280;8527;49.740;6.604;2023-03-05T16:03:15;99431.72;;;6.67;58.30
16821;BME280;8527;49.740;6.604;2023-03-05T16:08:14;99429.84;;;6.59;58.20
16821;BME280;8527;49.740;6.604;2023-03-05T16:13:18;99423.59;;;6.60;58.43
16821;BME280;8527;49.740;6.604;2023-03-05T16:18:16;99422.69;;;6.51;58.74
16821;BME280;8527;49.740;6.604;2023-03-05T16:23:14;99419.41;;;6.49;58.98
16821;BME280;8527;49.740;6.604;2023-03-05T16:28:13;99417.41;;;6.33;58.69
16821;BME280;8527;49.740;6.604;2023-03-05T16:33:16;99412.38;;;6.22;58.98
16821;BME280;8527;49.740;6.604;2023-03-05T16:38:14;99403.25;;;6.16;59.34
16821;BME280;8527;49.740;6.604;2023-03-05T16:43:13;99403.88;;;6.28;58.91
16821;BME280;8527;49.740;6.604;2023-03-05T16:48:17;99396.50;;;6.13;59.36
16821;BME280;8527;49.740;6.604;2023-03-05T16:53:15;99394.47;;;5.97;59.86
16821;BME280;8527;49.740;6.604;2023-03-05T16:58:14;99384.22;;;6.04;60.00
16821;BME280;8527;49.740;6.604;2023-03-05T17:03:12;99384.81;;;5.88;60.42
16821;BME280;8527;49.740;6.604;2023-03-05T17:08:13;99383.72;;;5.90;60.33
16821;BME280;8527;49.740;6.604;2023-03-05T17:13:12;99371.34;;;5.91;60.92
16821;BME280;8527;49.740;6.604;2023-03-05T17:18:10;99378.34;;;5.82;60.63
16821;BME280;8527;49.740;6.604;2023-03-05T17:23:09;99380.06;;;5.73;61.38
16821;BME280;8527;49.740;6.604;2023-03-05T17:28:10;99369.09;;;5.78;61.74
16821;BME280;8527;49.740;6.604;2023-03-05T17:33:09;99369.09;;;5.78;63.23
16821;BME280;8527;49.740;6.604;2023-03-05T17:38:08;99369.66;;;5.72;63.47
16821;BME280;8527;49.740;6.604;2023-03-05T17:43:09;99362.91;;;5.69;63.08
16821;BME280;8527;49.740;6.604;2023-03-05T17:48:09;99360.66;;;5.74;63.48
16821;BME280;8527;49.740;6.604;2023-03-05T17:53:11;99355.00;;;5.69;63.78
16821;BME280;8527;49.740;6.604;2023-03-05T17:58:12;99356.75;;;5.51;63.53
16821;BME280;8527;49.740;6.604;2023-03-05T18:03:10;99353.00;;;5.53;63.88
16821;BME280;8527;49.740;6.604;2023-03-05T18:08:09;99346.22;;;5.51;64.77
16821;BME280;8527;49.740;6.604;2023-03-05T18:13:07;99355.78;;;5.52;65.48
16821;BME280;8527;49.740;6.604;2023-03-05T18:18:08;99354.13;;;5.51;65.95
16821;BME280;8527;49.740;6.604;2023-03-05T18:23:08;99349.53;;;5.53;65.92
16821;BME280;8527;49.740;6.604;2023-03-05T18:28:09;99347.50;;;5.46;66.50
16821;BME280;8527;49.740;6.604;2023-03-05T18:33:14;99339.19;;;5.41;66.83
16821;BME280;8527;49.740;6.604;2023-03-05T18:38:14;99340.47;;;5.37;66.89
16821;BME280;8527;49.740;6.604;2023-03-05T18:43:13;99344.81;;;5.28;67.23
16821;BME280;8527;49.740;6.604;2023-03-05T18:48:14;99337.59;;;5.30;67.68
16821;BME280;8527;49.740;6.604;2023-03-05T18:53:13;99328.47;;;5.25;67.73
16821;BME280;8527;49.740;6.604;2023-03-05T18:58:11;99334.16;;;5.20;67.20
16821;BME280;8527;49.740;6.604;2023-03-05T19:03:16;99326.56;;;5.17;67.32
16821;BME280;8527;49.740;6.604;2023-03-05T19:08:14;99327.59;;;5.06;67.77
16821;BME280;8527;49.740;6.604;2023-03-05T19:13:16;99321.19;;;5.09;67.92
16821;BME280;8527;49.740;6.604;2023-03-05T19:18:31;99317.19;;;5.04;67.63
16821;BME280;8527;49.740;6.604;2023-03-05T19:23:37;99319.44;;;4.89;67.92
16821;BME280;8527;49.740;6.604;2023-03-05T19:28:35;99312.41;;;4.80;68.19
16821;BME280;8527;49.740;6.604;2023-03-05T19:33:40;99310.06;;;4.77;67.69
16821;BME280;8527;49.740;6.604;2023-03-05T19:38:38;99299.84;;;4.74;67.67
16821;BME280;8527;49.740;6.604;2023-03-05T19:43:39;99301.38;;;4.76;68.10
16821;BME280;8527;49.740;6.604;2023-03-05T19:48:40;99302.63;;;4.72;67.75
16821;BME280;8527;49.740;6.604;2023-03-05T19:53:39;99291.84;;;4.75;67.98
16821;BME280;8527;49.740;6.604;2023-03-05T19:58:38;99297.22;;;4.74;68.09
16821;BME280;8527;49.740;6.604;2023-03-05T20:03:45;99291.97;;;4.74;68.65
16821;BME280;8527;49.740;6.604;2023-03-05T20:08:44;99290.59;;;4.70;68.50
16821;BME280;8527;49.740;6.604;2023-03-05T20:13:46;99281.75;;;4.71;69.13
16821;BME280;8527;49.740;6.604;2023-03-05T20:18:47;99276.63;;;4.69;69.89
16821;BME280;8527;49.740;6.604;2023-03-05T20:23:47;99277.47;;;4.70;69.95
16821;BME280;8527;49.740;6.604;2023-03-05T20:28:46;99277.31;;;4.71;70.68
16821;BME280;8527;49.740;6.604;2023-03-05T20:33:47;99274.72;;;4.61;72.42
16821;BME280;8527;49.740;6.604;2023-03-05T20:38:48;99270.03;;;4.55;75.04
16821;BME280;8527;49.740;6.604;2023-03-05T20:43:48;99274.75;;;4.52;76.91
16821;BME280;8527;49.740;6.604;2023-03-05T20:48:51;99267.00;;;4.50;76.92
16821;BME280;8527;49.740;6.604;2023-03-05T20:53:52;99267.13;;;4.58;77.54
16821;BME280;8527;49.740;6.604;2023-03-05T20:58:52;99259.38;;;4.57;79.31
16821;BME280;8527;49.740;6.604;2023-03-05T21:03:55;99252.16;;;4.59;79.06
16821;BME280;8527;49.740;6.604;2023-03-05T21:08:54;99250.38;;;4.59;80.45
16821;BME280;8527;49.740;6.604;2023-03-05T21:13:55;99242.81;;;4.46;80.45
16821;BME280;8527;49.740;6.604;2023-03-05T21:18:56;99236.66;;;4.18;83.75
16821;BME280;8527;49.740;6.604;2023-03-05T21:23:55;99232.78;;;4.02;84.50
16821;BME280;8527;49.740;6.604;2023-03-05T21:28:53;99216.91;;;3.94;84.79
16821;BME280;8527;49.740;6.604;2023-03-05T21:33:51;99203.09;;;4.02;83.79
16821;BME280;8527;49.740;6.604;2023-03-05T21:38:52;99205.66;;;4.21;82.28
16821;BME280;8527;49.740;6.604;2023-03-05T21:43:50;99198.06;;;4.28;82.32
16821;BME280;8527;49.740;6.604;2023-03-05T21:48:49;99186.22;;;4.14;83.64
16821;BME280;8527;49.740;6.604;2023-03-05T21:53:48;99179.03;;;4.16;83.30
16821;BME280;8527;49.740;6.604;2023-03-05T21:58:49;99179.56;;;4.20;83.24
16821;BME280;8527;49.740;6.604;2023-03-05T22:03:48;99179.16;;;4.25;81.79
16821;BME280;8527;49.740;6.604;2023-03-05T22:08:48;99161.88;;;4.22;82.65
16821;BME280;8527;49.740;6.604;2023-03-05T22:13:49;99151.13;;;4.15;83.12
16821;BME280;8527;49.740;6.604;2023-03-05T22:18:47;99143.38;;;4.24;82.11
16821;BME280;8527;49.740;6.604;2023-03-05T22:23:45;99141.44;;;4.26;82.70
16821;BME280;8527;49.740;6.604;2023-03-05T22:28:45;99139.47;;;4.28;82.31
16821;BME280;8527;49.740;6.604;2023-03-05T22:33:46;99132.56;;;4.27;82.37
16821;BME280;8527;49.740;6.604;2023-03-05T22:38:44;99132.41;;;4.28;82.81
16821;BME280;8527;49.740;6.604;2023-03-05T22:43:43;99133.69;;;4.24;82.56
16821;BME280;8527;49.740;6.604;2023-03-05T22:48:47;99128.44;;;4.24;82.81
16821;BME280;8527;49.740;6.604;2023-03-05T22:53:49;99114.06;;;4.18;83.31
16821;BME280;8527;49.740;6.604;2023-03-05T22:58:47;99117.53;;;4.19;82.32
16821;BME280;8527;49.740;6.604;2023-03-05T23:03:49;99115.72;;;4.19;83.19
16821;BME280;8527;49.740;6.604;2023-03-05T23:08:52;99104.97;;;4.13;84.14
16821;BME280;8527;49.740;6.604;2023-03-05T23:13:51;99094.19;;;4.16;83.43
16821;BME280;8527;49.740;6.604;2023-03-05T23:18:52;99099.50;;;3.96;84.69
16821;BME280;8527;49.740;6.604;2023-03-05T23:23:51;99097.44;;;3.90;85.98
16821;BME280;8527;49.740;6.604;2023-03-05T23:28:53;99092.59;;;3.85;86.49
16821;BME280;8527;49.740;6.604;2023-03-05T23:33:54;99098.56;;;3.77;87.13
16821;BME280;8527;49.740;6.604;2023-03-05T23:38:52;99088.09;;;3.68;89.13
16821;BME280;8527;49.740;6.604;2023-03-05T23:43:52;99085.47;;;3.68;89.19
16821;BME280;8527;49.740;6.604;2023-03-05T23:48:50;99086.59;;;3.45;91.22
16821;BME280;8527;49.740;6.604;2023-03-05T23:53:51;99077.34;;;3.51;90.29
16821;BME280;8527;49.740;6.604;2023-03-05T23:58:50;99083.53;;;3.70;89.09
